Betagas — V2KA8 — position and weather

sailwx.info

Track history (hours):
 
Tides and Currents Weather Stations Pressure Air Temp Water Temp Dewpoint Dewpoint Depression Visibility Wind Speed Wind Dir Waves Ship Positions

Betagas

Last reported at 2017-Feb-21 13:33 UTC. Time now 2017-Feb-21 17:26 UTC.
Position N 54°36' W 000°19'.

Length 114.6 m; beam 15.7 m; draft 7.4 m.

Type: Tanker. MMSI: 304050636.

Date/timePositionNaut miles runAvg speedWind from/ knotsBaromVisibWave heightAir tempDewpointWater temp
2017-Feb-21 13:33N 54°36' W 000°19'1414.4
2017-Feb-21 12:33N 54°34' E 000°05'1414.1
2017-Feb-21 11:33N 54°31' E 000°29'15113.4
2017-Feb-21 00:18N 54°04' E 004°44'1013.1
2017-Feb-20 23:33N 54°05' E 005°00'1313.2
2017-Feb-20 22:32N 54°07' E 005°23'1313.2
2017-Feb-20 21:33N 54°09' E 005°45'8312.9
2017-Feb-20 15:06N 54°03' E 008°06'1 0.4
2017-Feb-20 12:31N 54°03' E 008°08'0 0.0
2017-Feb-20 08:22N 54°03' E 008°08'0 0.0
2017-Feb-20 02:22N 54°03' E 008°08'0 0.0
2017-Feb-19 21:31N 54°03' E 008°08'0 0.0
2017-Feb-19 20:31N 54°03' E 008°08'0 0.1
2017-Feb-19 17:28N 54°03' E 008°08'0 0.0
2017-Feb-19 16:28N 54°03' E 008°08'0 0.0
2017-Feb-19 12:28N 54°03' E 008°08'0 0.0
2017-Feb-19 11:25N 54°03' E 008°08'0 0.0
2017-Feb-19 10:22N 54°03' E 008°08'0 0.0
2017-Feb-19 09:13N 54°03' E 008°08'0 0.0
2017-Feb-19 07:28N 54°03' E 008°08'0 0.0
2017-Feb-19 03:22N 54°03' E 008°08'0 0.1
2017-Feb-19 02:14N 54°03' E 008°08'5 7.5
2017-Feb-19 01:32N 54°01' E 008°16'1312.8
2017-Feb-19 00:33N 53°58' E 008°37'1414.5
2017-Feb-18 23:34N 53°51' E 008°58'1413.5
2017-Feb-18 22:33N 53°50' E 009°21'1212.3
2017-Feb-18 21:33N 53°39' E 009°31'0 0.0
2017-Feb-18 20:33N 53°39' E 009°31'0 0.0
2017-Feb-18 19:33N 53°39' E 009°31'0 0.0
2017-Feb-18 18:30N 53°39' E 009°31'0 0.0
2017-Feb-18 17:33N 53°39' E 009°31'0 0.0
2017-Feb-18 16:33N 53°39' E 009°31'0 0.0
2017-Feb-18 15:30N 53°39' E 009°31'0 0.0
2017-Feb-18 14:30N 53°39' E 009°31'0 0.0
2017-Feb-18 13:30N 53°39' E 009°31'0 0.0
2017-Feb-18 12:30N 53°39' E 009°31'0 0.0
2017-Feb-18 11:30N 53°39' E 009°31'0 0.0
2017-Feb-18 10:33N 53°39' E 009°31'0 0.0
2017-Feb-18 09:30N 53°39' E 009°31'0 0.0
2017-Feb-18 08:33N 53°39' E 009°31'0 0.0
2017-Feb-18 07:33N 53°39' E 009°31'0 0.0
2017-Feb-18 06:33N 53°39' E 009°31'0 0.0
2017-Feb-18 05:33N 53°39' E 009°31'0 0.0
2017-Feb-18 04:33N 53°39' E 009°31'0 0.0
2017-Feb-18 03:34N 53°39' E 009°31'1 1.4
2017-Feb-18 02:34N 53°40' E 009°30'0 0.1
2017-Feb-18 01:34N 53°40' E 009°30'0 0.0
2017-Feb-18 00:34N 53°40' E 009°30'0 0.0
2017-Feb-17 23:34N 53°40' E 009°30'0 0.0
2017-Feb-17 22:34N 53°40' E 009°30'0 0.0
2017-Feb-17 21:34N 53°40' E 009°30'6 6.0
2017-Feb-17 20:34N 53°45' E 009°24'1111.1
2017-Feb-17 19:34N 53°53' E 009°10'1212.3
2017-Feb-17 18:34N 53°50' E 008°50'1312.6
2017-Feb-17 17:34N 53°58' E 008°33'1312.8
2017-Feb-17 16:33N 53°59' E 008°11'1413.7
2017-Feb-17 15:32N 53°57' E 007°48'9112.8
2017-Feb-17 08:27N 53°33' E 005°19'3913.6
2017-Feb-17 05:33N 53°08' E 004°28'1413.6
2017-Feb-17 04:33N 52°56' E 004°18'1413.3
2017-Feb-17 03:32N 52°44' E 004°07'1313.4
2017-Feb-17 02:32N 52°35' E 003°52'1313.2
2017-Feb-17 01:32N 52°25' E 003°36'1212.3
2017-Feb-17 00:33N 52°15' E 003°26'1312.8
2017-Feb-16 23:33N 52°02' E 003°24'1312.7
2017-Feb-16 22:33N 51°50' E 003°19'1111.1
2017-Feb-16 21:33N 51°39' E 003°21'1414.2
2017-Feb-16 20:33N 51°27' E 003°33'10 7.5
2017-Feb-16 19:12N 51°21' E 003°46'0 0.0
2017-Feb-16 18:30N 51°21' E 003°46'0 0.0
2017-Feb-16 17:24N 51°21' E 003°46'0 0.0
2017-Feb-16 16:06N 51°21' E 003°46'0 0.0
2017-Feb-16 15:30N 51°21' E 003°46'0 0.0
2017-Feb-16 14:30N 51°21' E 003°46'0 0.0
2017-Feb-16 13:12N 51°21' E 003°46'0 0.0
2017-Feb-16 12:06N 51°21' E 003°46'0 0.0
2017-Feb-16 10:24N 51°21' E 003°46'0 0.0
2017-Feb-16 09:18N 51°21' E 003°46'0 0.0
2017-Feb-16 08:12N 51°21' E 003°46'0 0.0
2017-Feb-16 07:24N 51°21' E 003°46'0 0.0
2017-Feb-16 06:30N 51°21' E 003°46'0 0.0
2017-Feb-16 05:30N 51°21' E 003°46'0 0.0
2017-Feb-16 04:30N 51°21' E 003°46'0 0.0
2017-Feb-16 03:30N 51°21' E 003°46'0 0.0
2017-Feb-16 02:30N 51°21' E 003°46'0 0.0
2017-Feb-16 01:24N 51°21' E 003°46'0 0.0
2017-Feb-16 00:30N 51°21' E 003°46'0 0.0
2017-Feb-15 23:30N 51°21' E 003°46'0 0.0
2017-Feb-15 21:30N 51°21' E 003°46'0 0.0
2017-Feb-15 19:30N 51°21' E 003°46'0 0.0
2017-Feb-15 18:24N 51°21' E 003°46'0 0.0
2017-Feb-15 17:24N 51°21' E 003°46'0 0.0
2017-Feb-15 16:30N 51°21' E 003°46'0 0.0
2017-Feb-15 15:32N 51°21' E 003°46'4 4.0
2017-Feb-15 14:33N 51°24' E 003°43'8 8.5
2017-Feb-15 13:34N 51°25' E 003°29'1111.2
2017-Feb-15 12:34N 51°24' E 003°11'1110.5
2017-Feb-15 11:33N 51°22' E 002°55'9 8.7
2017-Feb-15 10:34N 51°24' E 002°41'2 2.2
2017-Feb-15 09:32N 51°26' E 002°39'0 0.1
2017-Feb-15 08:32N 51°26' E 002°39'0 0.0
2017-Feb-15 07:32N 51°26' E 002°39'0 0.1
2017-Feb-15 06:32N 51°26' E 002°39'0 0.0
2017-Feb-15 05:32N 51°26' E 002°39'0 0.0
2017-Feb-15 04:32N 51°26' E 002°39'0 0.0
2017-Feb-15 03:32N 51°26' E 002°39'0 0.0
2017-Feb-15 02:32N 51°26' E 002°39'0 0.2
2017-Feb-15 01:32N 51°26' E 002°39'0 0.0
2017-Feb-15 00:32N 51°25' E 002°39'0 0.0
2017-Feb-14 23:32N 51°25' E 002°39'0 0.0
2017-Feb-14 22:26N 51°25' E 002°39'0 0.1
2017-Feb-14 21:29N 51°26' E 002°39'0 0.1
2017-Feb-14 20:32N 51°26' E 002°39'0 0.0
2017-Feb-14 19:32N 51°26' E 002°39'0 0.1
2017-Feb-14 18:32N 51°26' E 002°39'0 0.1
2017-Feb-14 17:32N 51°26' E 002°39'0 0.0
2017-Feb-14 16:32N 51°26' E 002°39'0 0.0
2017-Feb-14 15:32N 51°26' E 002°39'0 0.0
2017-Feb-14 14:32N 51°26' E 002°39'0 0.2
2017-Feb-14 13:32N 51°26' E 002°39'0 0.1
2017-Feb-14 12:32N 51°26' E 002°39'0 0.0
2017-Feb-14 11:32N 51°26' E 002°39'0 0.0
2017-Feb-14 10:32N 51°26' E 002°39'0 0.0
2017-Feb-14 09:29N 51°26' E 002°39'0 0.1
2017-Feb-14 08:32N 51°26' E 002°39'0 0.1
2017-Feb-14 07:32N 51°26' E 002°39'0 0.0
2017-Feb-14 06:32N 51°26' E 002°39'0 0.1
2017-Feb-14 05:32N 51°26' E 002°39'0 0.1
2017-Feb-14 04:32N 51°26' E 002°39'0 0.0
2017-Feb-14 03:32N 51°26' E 002°39'0 0.0
2017-Feb-14 02:32N 51°26' E 002°39'0 0.2
2017-Feb-14 01:32N 51°26' E 002°38'0 0.1
2017-Feb-14 00:29N 51°26' E 002°38'0 0.0
2017-Feb-13 23:32N 51°26' E 002°39'0 0.0
2017-Feb-13 22:32N 51°25' E 002°39'0 0.0
2017-Feb-13 21:32N 51°25' E 002°39'0 0.1
2017-Feb-13 20:32N 51°26' E 002°38'0 0.0
2017-Feb-13 19:32N 51°26' E 002°38'0 0.0
2017-Feb-13 18:32N 51°26' E 002°38'0 0.0
2017-Feb-13 17:32N 51°26' E 002°38'0 0.2
2017-Feb-13 16:32N 51°26' E 002°39'0 0.0
2017-Feb-13 15:32N 51°26' E 002°39'0 0.0
2017-Feb-13 14:32N 51°26' E 002°39'0 0.2
2017-Feb-13 13:32N 51°26' E 002°38'0 0.1
2017-Feb-13 12:32N 51°26' E 002°38'0 0.0
2017-Feb-13 11:32N 51°26' E 002°38'0 0.0
2017-Feb-13 10:32N 51°26' E 002°38'0 0.0
2017-Feb-13 09:32N 51°26' E 002°39'0 0.0
2017-Feb-13 08:32N 51°26' E 002°38'0 0.0
2017-Feb-13 07:29N 51°26' E 002°38'0 0.0
2017-Feb-13 06:32N 51°26' E 002°38'0 0.0
2017-Feb-13 05:32N 51°26' E 002°38'0 0.1
2017-Feb-13 04:32N 51°26' E 002°39'0 0.5
2017-Feb-13 03:34N 51°26' E 002°39'1212.1
2017-Feb-13 02:34N 51°38' E 002°44'1313.3
2017-Feb-13 01:33N 51°51' E 002°46'1311.8
2017-Feb-13 00:29N 52°02' E 002°57'1415.2
2017-Feb-12 23:34N 52°03' E 003°20'1615.5
2017-Feb-12 22:33N 52°03' E 003°45'1414.4
2017-Feb-12 21:33N 51°58' E 004°07'4 4.2
2017-Feb-12 20:33N 51°55' E 004°12'0 0.0
2017-Feb-12 19:33N 51°55' E 004°12'0 0.0
2017-Feb-12 18:30N 51°55' E 004°12'0 0.0
2017-Feb-12 17:30N 51°55' E 004°12'0 0.0
2017-Feb-12 16:27N 51°55' E 004°12'0 0.0
2017-Feb-12 15:24N 51°55' E 004°12'0 0.0
2017-Feb-12 14:33N 51°55' E 004°12'0 0.0
2017-Feb-12 13:30N 51°55' E 004°12'0 0.0
2017-Feb-12 12:27N 51°55' E 004°12'0 0.0
2017-Feb-12 11:33N 51°55' E 004°12'0 0.0
2017-Feb-12 10:21N 51°55' E 004°12'0 0.0
2017-Feb-12 09:21N 51°55' E 004°12'0 0.0
2017-Feb-12 08:24N 51°55' E 004°12'0 0.0
2017-Feb-12 07:33N 51°55' E 004°12'0 0.0
2017-Feb-12 06:33N 51°55' E 004°12'0 0.0
2017-Feb-12 05:15N 51°55' E 004°12'0 0.0
2017-Feb-12 04:24N 51°55' E 004°12'0 0.0
2017-Feb-12 03:21N 51°55' E 004°12'0 0.0
2017-Feb-12 02:21N 51°55' E 004°12'0 0.0
2017-Feb-12 01:27N 51°55' E 004°12'0 0.0
2017-Feb-12 00:09N 51°55' E 004°12'0 0.0
2017-Feb-11 23:33N 51°55' E 004°12'0 0.0
2017-Feb-11 22:30N 51°55' E 004°12'5 4.9
2017-Feb-11 21:33N 51°58' E 004°06'1111.1
2017-Feb-11 20:34N 52°01' E 003°49'8 6.3
2017-Feb-11 19:17N 52°09' E 003°44'0 0.1
2017-Feb-11 18:18N 52°09' E 003°44'0 0.1
2017-Feb-11 17:29N 52°09' E 003°44'0 0.0
2017-Feb-11 14:23N 52°09' E 003°44'  
Track history (hours):
 
Tides and Currents Weather Stations Pressure Air Temp Water Temp Dewpoint Dewpoint Depression Visibility Wind Speed Wind Dir Waves Ship Positions

Betagas

Last reported at 2017-Feb-21 13:33 UTC. Time now 2017-Feb-21 17:26 UTC.
Position N 54°36' W 000°19'.

Length 114.6 m; beam 15.7 m; draft 7.4 m.

Type: Tanker. MMSI: 304050636.

Date/timePositionNaut miles runAvg speedWind from/ knotsBaromVisibWave heightAir tempDewpointWater temp
2017-Feb-21 13:33N 54°36' W 000°19'1414.4
2017-Feb-21 12:33N 54°34' E 000°05'1414.1
2017-Feb-21 11:33N 54°31' E 000°29'15113.4
2017-Feb-21 00:18N 54°04' E 004°44'1013.1
2017-Feb-20 23:33N 54°05' E 005°00'1313.2
2017-Feb-20 22:32N 54°07' E 005°23'1313.2
2017-Feb-20 21:33N 54°09' E 005°45'8312.9
2017-Feb-20 15:06N 54°03' E 008°06'1 0.4
2017-Feb-20 12:31N 54°03' E 008°08'0 0.0
2017-Feb-20 08:22N 54°03' E 008°08'0 0.0
2017-Feb-20 02:22N 54°03' E 008°08'0 0.0
2017-Feb-19 21:31N 54°03' E 008°08'0 0.0
2017-Feb-19 20:31N 54°03' E 008°08'0 0.1
2017-Feb-19 17:28N 54°03' E 008°08'0 0.0
2017-Feb-19 16:28N 54°03' E 008°08'0 0.0
2017-Feb-19 12:28N 54°03' E 008°08'0 0.0
2017-Feb-19 11:25N 54°03' E 008°08'0 0.0
2017-Feb-19 10:22N 54°03' E 008°08'0 0.0
2017-Feb-19 09:13N 54°03' E 008°08'0 0.0
2017-Feb-19 07:28N 54°03' E 008°08'0 0.0
2017-Feb-19 03:22N 54°03' E 008°08'0 0.1
2017-Feb-19 02:14N 54°03' E 008°08'5 7.5
2017-Feb-19 01:32N 54°01' E 008°16'1312.8
2017-Feb-19 00:33N 53°58' E 008°37'1414.5
2017-Feb-18 23:34N 53°51' E 008°58'1413.5
2017-Feb-18 22:33N 53°50' E 009°21'1212.3
2017-Feb-18 21:33N 53°39' E 009°31'0 0.0
2017-Feb-18 20:33N 53°39' E 009°31'0 0.0
2017-Feb-18 19:33N 53°39' E 009°31'0 0.0
2017-Feb-18 18:30N 53°39' E 009°31'0 0.0
2017-Feb-18 17:33N 53°39' E 009°31'0 0.0
2017-Feb-18 16:33N 53°39' E 009°31'0 0.0
2017-Feb-18 15:30N 53°39' E 009°31'0 0.0
2017-Feb-18 14:30N 53°39' E 009°31'0 0.0
2017-Feb-18 13:30N 53°39' E 009°31'0 0.0
2017-Feb-18 12:30N 53°39' E 009°31'0 0.0
2017-Feb-18 11:30N 53°39' E 009°31'0 0.0
2017-Feb-18 10:33N 53°39' E 009°31'0 0.0
2017-Feb-18 09:30N 53°39' E 009°31'0 0.0
2017-Feb-18 08:33N 53°39' E 009°31'0 0.0
2017-Feb-18 07:33N 53°39' E 009°31'0 0.0
2017-Feb-18 06:33N 53°39' E 009°31'0 0.0
2017-Feb-18 05:33N 53°39' E 009°31'0 0.0
2017-Feb-18 04:33N 53°39' E 009°31'0 0.0
2017-Feb-18 03:34N 53°39' E 009°31'1 1.4
2017-Feb-18 02:34N 53°40' E 009°30'0 0.1
2017-Feb-18 01:34N 53°40' E 009°30'0 0.0
2017-Feb-18 00:34N 53°40' E 009°30'0 0.0
2017-Feb-17 23:34N 53°40' E 009°30'0 0.0
2017-Feb-17 22:34N 53°40' E 009°30'0 0.0
2017-Feb-17 21:34N 53°40' E 009°30'6 6.0
2017-Feb-17 20:34N 53°45' E 009°24'1111.1
2017-Feb-17 19:34N 53°53' E 009°10'1212.3
2017-Feb-17 18:34N 53°50' E 008°50'1312.6
2017-Feb-17 17:34N 53°58' E 008°33'1312.8
2017-Feb-17 16:33N 53°59' E 008°11'1413.7
2017-Feb-17 15:32N 53°57' E 007°48'9112.8
2017-Feb-17 08:27N 53°33' E 005°19'3913.6
2017-Feb-17 05:33N 53°08' E 004°28'1413.6
2017-Feb-17 04:33N 52°56' E 004°18'1413.3
2017-Feb-17 03:32N 52°44' E 004°07'1313.4
2017-Feb-17 02:32N 52°35' E 003°52'1313.2
2017-Feb-17 01:32N 52°25' E 003°36'1212.3
2017-Feb-17 00:33N 52°15' E 003°26'1312.8
2017-Feb-16 23:33N 52°02' E 003°24'1312.7
2017-Feb-16 22:33N 51°50' E 003°19'1111.1
2017-Feb-16 21:33N 51°39' E 003°21'1414.2
2017-Feb-16 20:33N 51°27' E 003°33'10 7.5
2017-Feb-16 19:12N 51°21' E 003°46'0 0.0
2017-Feb-16 18:30N 51°21' E 003°46'0 0.0
2017-Feb-16 17:24N 51°21' E 003°46'0 0.0
2017-Feb-16 16:06N 51°21' E 003°46'0 0.0
2017-Feb-16 15:30N 51°21' E 003°46'0 0.0
2017-Feb-16 14:30N 51°21' E 003°46'0 0.0
2017-Feb-16 13:12N 51°21' E 003°46'0 0.0
2017-Feb-16 12:06N 51°21' E 003°46'0 0.0
2017-Feb-16 10:24N 51°21' E 003°46'0 0.0
2017-Feb-16 09:18N 51°21' E 003°46'0 0.0
2017-Feb-16 08:12N 51°21' E 003°46'0 0.0
2017-Feb-16 07:24N 51°21' E 003°46'0 0.0
2017-Feb-16 06:30N 51°21' E 003°46'0 0.0
2017-Feb-16 05:30N 51°21' E 003°46'0 0.0
2017-Feb-16 04:30N 51°21' E 003°46'0 0.0
2017-Feb-16 03:30N 51°21' E 003°46'0 0.0
2017-Feb-16 02:30N 51°21' E 003°46'0 0.0
2017-Feb-16 01:24N 51°21' E 003°46'0 0.0
2017-Feb-16 00:30N 51°21' E 003°46'0 0.0
2017-Feb-15 23:30N 51°21' E 003°46'0 0.0
2017-Feb-15 21:30N 51°21' E 003°46'0 0.0
2017-Feb-15 19:30N 51°21' E 003°46'0 0.0
2017-Feb-15 18:24N 51°21' E 003°46'0 0.0
2017-Feb-15 17:24N 51°21' E 003°46'0 0.0
2017-Feb-15 16:30N 51°21' E 003°46'0 0.0
2017-Feb-15 15:32N 51°21' E 003°46'4 4.0
2017-Feb-15 14:33N 51°24' E 003°43'8 8.5
2017-Feb-15 13:34N 51°25' E 003°29'1111.2
2017-Feb-15 12:34N 51°24' E 003°11'1110.5
2017-Feb-15 11:33N 51°22' E 002°55'9 8.7
2017-Feb-15 10:34N 51°24' E 002°41'2 2.2
2017-Feb-15 09:32N 51°26' E 002°39'0 0.1
2017-Feb-15 08:32N 51°26' E 002°39'0 0.0
2017-Feb-15 07:32N 51°26' E 002°39'0 0.1
2017-Feb-15 06:32N 51°26' E 002°39'0 0.0
2017-Feb-15 05:32N 51°26' E 002°39'0 0.0
2017-Feb-15 04:32N 51°26' E 002°39'0 0.0
2017-Feb-15 03:32N 51°26' E 002°39'0 0.0
2017-Feb-15 02:32N 51°26' E 002°39'0 0.2
2017-Feb-15 01:32N 51°26' E 002°39'0 0.0
2017-Feb-15 00:32N 51°25' E 002°39'0 0.0
2017-Feb-14 23:32N 51°25' E 002°39'0 0.0
2017-Feb-14 22:26N 51°25' E 002°39'0 0.1
2017-Feb-14 21:29N 51°26' E 002°39'0 0.1
2017-Feb-14 20:32N 51°26' E 002°39'0 0.0
2017-Feb-14 19:32N 51°26' E 002°39'0 0.1
2017-Feb-14 18:32N 51°26' E 002°39'0 0.1
2017-Feb-14 17:32N 51°26' E 002°39'0 0.0
2017-Feb-14 16:32N 51°26' E 002°39'0 0.0
2017-Feb-14 15:32N 51°26' E 002°39'0 0.0
2017-Feb-14 14:32N 51°26' E 002°39'0 0.2
2017-Feb-14 13:32N 51°26' E 002°39'0 0.1
2017-Feb-14 12:32N 51°26' E 002°39'0 0.0
2017-Feb-14 11:32N 51°26' E 002°39'0 0.0
2017-Feb-14 10:32N 51°26' E 002°39'0 0.0
2017-Feb-14 09:29N 51°26' E 002°39'0 0.1
2017-Feb-14 08:32N 51°26' E 002°39'0 0.1
2017-Feb-14 07:32N 51°26' E 002°39'0 0.0
2017-Feb-14 06:32N 51°26' E 002°39'0 0.1
2017-Feb-14 05:32N 51°26' E 002°39'0 0.1
2017-Feb-14 04:32N 51°26' E 002°39'0 0.0
2017-Feb-14 03:32N 51°26' E 002°39'0 0.0
2017-Feb-14 02:32N 51°26' E 002°39'0 0.2
2017-Feb-14 01:32N 51°26' E 002°38'0 0.1
2017-Feb-14 00:29N 51°26' E 002°38'0 0.0
2017-Feb-13 23:32N 51°26' E 002°39'0 0.0
2017-Feb-13 22:32N 51°25' E 002°39'0 0.0
2017-Feb-13 21:32N 51°25' E 002°39'0 0.1
2017-Feb-13 20:32N 51°26' E 002°38'0 0.0
2017-Feb-13 19:32N 51°26' E 002°38'0 0.0
2017-Feb-13 18:32N 51°26' E 002°38'0 0.0
2017-Feb-13 17:32N 51°26' E 002°38'0 0.2
2017-Feb-13 16:32N 51°26' E 002°39'0 0.0
2017-Feb-13 15:32N 51°26' E 002°39'0 0.0
2017-Feb-13 14:32N 51°26' E 002°39'0 0.2
2017-Feb-13 13:32N 51°26' E 002°38'0 0.1
2017-Feb-13 12:32N 51°26' E 002°38'0 0.0
2017-Feb-13 11:32N 51°26' E 002°38'0 0.0
2017-Feb-13 10:32N 51°26' E 002°38'0 0.0
2017-Feb-13 09:32N 51°26' E 002°39'0 0.0
2017-Feb-13 08:32N 51°26' E 002°38'0 0.0
2017-Feb-13 07:29N 51°26' E 002°38'0 0.0
2017-Feb-13 06:32N 51°26' E 002°38'0 0.0
2017-Feb-13 05:32N 51°26' E 002°38'0 0.1
2017-Feb-13 04:32N 51°26' E 002°39'0 0.5
2017-Feb-13 03:34N 51°26' E 002°39'1212.1
2017-Feb-13 02:34N 51°38' E 002°44'1313.3
2017-Feb-13 01:33N 51°51' E 002°46'1311.8
2017-Feb-13 00:29N 52°02' E 002°57'1415.2
2017-Feb-12 23:34N 52°03' E 003°20'1615.5
2017-Feb-12 22:33N 52°03' E 003°45'1414.4
2017-Feb-12 21:33N 51°58' E 004°07'4 4.2
2017-Feb-12 20:33N 51°55' E 004°12'0 0.0
2017-Feb-12 19:33N 51°55' E 004°12'0 0.0
2017-Feb-12 18:30N 51°55' E 004°12'0 0.0
2017-Feb-12 17:30N 51°55' E 004°12'0 0.0
2017-Feb-12 16:27N 51°55' E 004°12'0 0.0
2017-Feb-12 15:24N 51°55' E 004°12'0 0.0
2017-Feb-12 14:33N 51°55' E 004°12'0 0.0
2017-Feb-12 13:30N 51°55' E 004°12'0 0.0
2017-Feb-12 12:27N 51°55' E 004°12'0 0.0
2017-Feb-12 11:33N 51°55' E 004°12'0 0.0
2017-Feb-12 10:21N 51°55' E 004°12'0 0.0
2017-Feb-12 09:21N 51°55' E 004°12'0 0.0
2017-Feb-12 08:24N 51°55' E 004°12'0 0.0
2017-Feb-12 07:33N 51°55' E 004°12'0 0.0
2017-Feb-12 06:33N 51°55' E 004°12'0 0.0
2017-Feb-12 05:15N 51°55' E 004°12'0 0.0
2017-Feb-12 04:24N 51°55' E 004°12'0 0.0
2017-Feb-12 03:21N 51°55' E 004°12'0 0.0
2017-Feb-12 02:21N 51°55' E 004°12'0 0.0
2017-Feb-12 01:27N 51°55' E 004°12'0 0.0
2017-Feb-12 00:09N 51°55' E 004°12'0 0.0
2017-Feb-11 23:33N 51°55' E 004°12'0 0.0
2017-Feb-11 22:30N 51°55' E 004°12'5 4.9
2017-Feb-11 21:33N 51°58' E 004°06'1111.1
2017-Feb-11 20:34N 52°01' E 003°49'8 6.3
2017-Feb-11 19:17N 52°09' E 003°44'0 0.1
2017-Feb-11 18:18N 52°09' E 003°44'0 0.1
2017-Feb-11 17:29N 52°09' E 003°44'0 0.0
2017-Feb-11 14:23N 52°09' E 003°44'  

Dump ship's entire track history